Time;durP1;ratioP1;P1;durP2;ratioP2;P2;SDS_P1;SDS_P2;PMS_P1;PMS_P2;Temp;Humidity;BMP_temperature;BMP_pressure;BME280_temperature;BME280_humidity;BME280_pressure;Samples;Min_cycle;Max_cycle;Signal;HPM_P1;HPM_P2
2022/06/02 00:00:11;;;;;;;8.30;6.70;;;;;;;14.07;82.06;97486.66;109389;1259;68754;-70
2022/06/02 00:03:27;;;;;;;8.70;6.40;;;;;;;14.04;85.26;97492.15;108767;1261;59845;-73
2022/06/02 00:06:22;;;;;;;7.90;6.10;;;;;;;13.99;82.26;97488.33;108915;1260;59726;-70
2022/06/02 00:09:13;;;;;;;7.70;5.60;;;;;;;13.96;81.10;97489.70;108928;1260;70682;-71
2022/06/02 00:12:10;;;;;;;8.40;6.40;;;;;;;13.93;81.49;97490.27;108904;1259;67673;-69
2022/06/02 00:15:00;;;;;;;11.50;7.70;;;;;;;13.89;82.98;97489.21;108810;1260;68637;-71
2022/06/02 00:17:33;;;;;;;9.90;6.90;;;;;;;13.85;87.30;97493.45;108930;1260;59836;-70
2022/06/02 00:20:18;;;;;;;8.40;6.60;;;;;;;13.82;88.43;97493.52;108928;1260;59818;-66
2022/06/02 00:23:29;;;;;;;10.90;7.20;;;;;;;13.80;88.76;97493.45;109039;1260;71547;-69
2022/06/02 00:26:39;;;;;;;8.70;7.00;;;;;;;13.78;88.09;97492.83;109137;1260;66827;-70
2022/06/02 00:29:19;;;;;;;13.10;8.30;;;;;;;13.75;87.24;97490.94;109096;1260;68754;-70
2022/06/02 00:31:59;;;;;;;;;;;;;;;13.74;86.82;97493.48;109133;1254;59834;-69
2022/06/02 00:35:10;;;;;;;8.90;5.80;;;;;;;13.72;86.45;97492.58;109598;1252;59743;-69
2022/06/02 00:37:47;;;;;;;7.50;5.90;;;;;;;13.72;85.18;97490.06;109163;1257;70808;-71
2022/06/02 00:40:22;;;;;;;8.20;6.70;;;;;;;13.74;84.75;97491.88;109223;1256;68443;-72
2022/06/02 00:43:07;;;;;;;9.30;5.90;;;;;;;13.75;86.58;97491.64;109176;1257;69515;-72
2022/06/02 00:45:45;;;;;;;8.30;6.90;;;;;;;13.75;83.49;97487.73;109685;1257;59804;-70
2022/06/02 00:48:50;;;;;;;11.30;7.70;;;;;;;13.76;87.84;97487.64;109263;1257;59758;-70
2022/06/02 00:51:41;;;;;;;9.40;7.10;;;;;;;13.75;88.53;97489.48;109110;1257;71450;-71
2022/06/02 00:57:46;;;;;;;10.00;7.90;;;;;;;13.74;85.33;97483.83;109151;1257;69433;-70
2022/06/02 01:00:29;;;;;;;8.10;6.80;;;;;;;13.72;83.94;97484.50;109144;1257;59765;-69
2022/06/02 01:03:15;;;;;;;9.80;7.40;;;;;;;13.70;83.41;97485.02;109232;1256;60079;-65
2022/06/02 01:05:54;;;;;;;10.60;6.40;;;;;;;13.67;83.51;97484.25;109008;1257;70064;-72
2022/06/02 01:08:29;;;;;;;10.50;6.40;;;;;;;13.64;83.84;97487.50;109126;1257;68740;-70
2022/06/02 01:11:06;;;;;;;8.20;6.30;;;;;;;13.62;86.23;97490.77;109054;1257;69401;-72
2022/06/02 01:13:46;;;;;;;8.50;5.80;;;;;;;13.59;84.94;97488.91;109206;1256;59791;-69
2022/06/02 01:16:52;;;;;;;8.50;6.40;;;;;;;13.57;85.19;97484.73;109500;1251;59750;-66
2022/06/02 01:19:46;;;;;;;10.10;7.40;;;;;;;13.55;88.84;97486.11;109539;1252;71554;-71
2022/06/02 01:23:03;;;;;;;10.80;8.20;;;;;;;13.53;90.06;97485.95;109562;1251;68079;-69
2022/06/02 01:25:46;;;;;;;11.30;7.30;;;;;;;13.50;90.22;97482.52;109477;1251;68626;-70
2022/06/02 01:28:50;;;;;;;9.10;6.90;;;;;;;13.48;90.07;97478.43;109597;1252;59692;-69
2022/06/02 01:31:51;;;;;;;12.50;7.60;;;;;;;13.47;90.37;97474.70;109639;1251;59735;-67
2022/06/02 01:34:41;;;;;;;11.30;7.40;;;;;;;13.45;89.92;97472.61;110150;1251;71515;-68
2022/06/02 01:37:23;;;;;;;10.40;7.00;;;;;;;13.43;89.42;97469.31;109746;1250;68478;-67
2022/06/02 01:39:57;;;;;;;10.20;7.50;;;;;;;13.40;89.75;97469.92;109547;1251;69306;-70
2022/06/02 01:42:45;;;;;;;12.00;8.40;;;;;;;13.37;90.55;97471.55;109778;1250;59710;-65
2022/06/02 01:45:27;;;;;;;9.40;7.90;;;;;;;13.35;90.67;97472.19;109755;1250;59701;-72
2022/06/02 01:48:15;;;;;;;8.70;6.70;;;;;;;13.35;90.44;97471.48;109626;1250;70688;-71
2022/06/02 01:50:59;;;;;;;15.30;8.10;;;;;;;13.35;87.29;97467.84;109829;1250;68597;-68
2022/06/02 01:53:40;;;;;;;9.90;7.30;;;;;;;13.35;89.44;97470.61;109686;1250;68560;-70
2022/06/02 01:56:26;;;;;;;9.60;6.70;;;;;;;13.36;89.61;97471.66;109717;1250;59726;-70
2022/06/02 01:59:21;;;;;;;10.20;7.50;;;;;;;13.34;88.72;97472.64;109798;1250;59628;-69
2022/06/02 02:01:58;;;;;;;8.30;5.80;;;;;;;13.32;87.88;97469.70;109673;1250;71606;-72
2022/06/02 02:05:17;;;;;;;7.80;6.60;;;;;;;13.29;86.10;97470.30;109801;1250;68423;-71
2022/06/02 02:08:19;;;;;;;8.90;6.60;;;;;;;13.24;85.45;97470.17;109712;1250;69639;-70
2022/06/02 02:11:03;;;;;;;9.70;7.30;;;;;;;13.18;85.53;97470.97;109786;1250;59704;-70
2022/06/02 02:14:06;;;;;;;9.80;7.90;;;;;;;13.13;85.68;97470.63;109770;1250;59643;-70
2022/06/02 02:17:01;;;;;;;9.20;6.50;;;;;;;13.09;89.09;97464.69;109807;1250;69868;-69
2022/06/02 02:19:58;;;;;;;11.10;7.90;;;;;;;13.05;90.56;97460.85;109607;1250;68420;-72
2022/06/02 02:22:34;;;;;;;10.00;7.30;;;;;;;13.02;91.12;97460.53;110205;1250;68622;-68
2022/06/02 02:25:18;;;;;;;8.60;6.50;;;;;;;13.02;91.34;97459.36;109809;1250;59738;-71
2022/06/02 02:28:13;;;;;;;10.90;8.80;;;;;;;13.01;91.55;97457.89;109812;1250;59774;-68
2022/06/02 02:30:46;;;;;;;9.40;6.90;;;;;;;12.97;91.38;97463.54;109790;1250;71578;-69
2022/06/02 02:33:32;;;;;;;10.00;7.50;;;;;;;12.95;90.74;97462.35;109849;1250;68466;-70
2022/06/02 02:36:03;;;;;;;11.00;7.40;;;;;;;12.95;90.65;97465.16;109674;1250;68381;-70
2022/06/02 02:38:50;;;;;;;10.40;7.50;;;;;;;12.94;91.89;97467.30;109796;1250;59653;-72
2022/06/02 02:41:35;;;;;;;9.40;7.40;;;;;;;12.93;91.26;97470.34;109879;1250;59708;-71
2022/06/02 02:44:34;;;;;;;8.30;5.50;;;;;;;12.94;92.20;97467.49;109697;1250;70548;-66
2022/06/02 02:47:21;;;;;;;10.70;7.60;;;;;;;12.96;93.01;97467.15;109678;1250;67657;-70
2022/06/02 02:50:05;;;;;;;10.70;7.70;;;;;;;12.98;93.47;97473.61;109820;1250;68873;-65
2022/06/02 02:52:50;;;;;;;10.60;6.40;;;;;;;12.99;92.86;97477.55;109446;1253;59697;-71
2022/06/02 02:55:33;;;;;;;8.70;6.50;;;;;;;13.02;91.83;97475.11;109700;1250;59782;-71
2022/06/02 02:58:30;;;;;;;10.30;8.00;;;;;;;13.03;92.25;97472.70;109636;1250;71425;-72
2022/06/02 03:01:07;;;;;;;11.50;8.20;;;;;;;13.02;91.27;97467.77;109637;1251;68412;-70
2022/06/02 03:04:05;;;;;;;8.20;6.60;;;;;;;12.98;90.49;97470.69;109561;1251;69308;-71
2022/06/02 03:06:42;;;;;;;9.10;6.80;;;;;;;12.96;90.98;97470.14;109335;1250;59783;-71
2022/06/02 03:09:21;;;;;;;9.00;7.40;;;;;;;12.97;91.32;97469.69;110279;1250;59675;-71
2022/06/02 03:11:55;;;;;;;11.70;6.90;;;;;;;13.00;92.25;97472.44;109723;1250;70785;-70
2022/06/02 03:14:30;;;;;;;11.00;8.20;;;;;;;13.03;91.79;97474.52;109716;1250;68430;-71
2022/06/02 03:17:25;;;;;;;9.20;6.20;;;;;;;13.07;92.68;97474.11;109787;1250;68616;-71
2022/06/02 03:20:14;;;;;;;9.80;6.70;;;;;;;13.15;89.83;97474.20;109832;1250;59682;-71
2022/06/02 03:23:20;;;;;;;9.30;7.30;;;;;;;13.22;90.11;97471.71;109670;1250;59757;-69
2022/06/02 03:26:09;;;;;;;11.10;7.90;;;;;;;13.29;90.95;97471.64;109576;1250;71537;-70
2022/06/02 03:29:05;;;;;;;10.30;7.10;;;;;;;13.32;90.70;97469.48;109841;1250;67972;-68
2022/06/02 03:31:53;;;;;;;10.80;7.80;;;;;;;13.33;90.06;97473.58;109589;1250;69526;-69
2022/06/02 03:34:39;;;;;;;10.30;6.50;;;;;;;13.37;89.70;97476.48;109821;1250;59759;-69
2022/06/02 03:37:46;;;;;;;8.60;6.50;;;;;;;13.40;89.89;97474.93;109841;1250;59694;-71
2022/06/02 03:40:55;;;;;;;6.70;5.90;;;;;;;13.49;89.84;97479.44;109844;1250;71548;-70
2022/06/02 03:43:56;;;;;;;10.20;6.90;;;;;;;13.58;90.14;97483.29;109662;1251;67782;-71
2022/06/02 03:46:43;;;;;;;8.90;6.10;;;;;;;13.66;88.55;97480.33;109668;1250;68752;-71
2022/06/02 03:49:30;;;;;;;9.90;6.80;;;;;;;13.74;86.34;97481.84;109724;1250;59685;-66
2022/06/02 03:52:14;;;;;;;8.50;6.50;;;;;;;13.82;86.38;97482.63;109662;1250;59705;-72
2022/06/02 03:54:50;;;;;;;10.10;7.40;;;;;;;13.90;86.12;97483.20;109721;1250;71558;-72
2022/06/02 03:57:40;;;;;;;8.90;6.80;;;;;;;13.97;88.14;97486.60;110116;1251;67685;-71
2022/06/02 04:00:23;;;;;;;7.80;6.20;;;;;;;14.06;88.66;97485.16;109737;1250;69280;-71
2022/06/02 04:03:36;;;;;;;10.80;7.20;;;;;;;14.16;88.76;97485.17;109718;1250;60803;-70
2022/06/02 04:06:14;;;;;;;8.80;6.30;;;;;;;14.29;88.63;97489.98;109706;1250;59695;-72
2022/06/02 04:09:01;;;;;;;11.20;7.10;;;;;;;14.41;87.29;97489.08;109606;1251;70895;-72
2022/06/02 04:15:08;;;;;;;11.20;9.10;;;;;;;14.71;88.54;97497.04;109614;1251;69376;-69
2022/06/02 04:18:02;;;;;;;10.20;8.40;;;;;;;14.82;88.48;97493.92;109750;1250;59783;-67
2022/06/02 04:21:01;;;;;;;9.30;7.90;;;;;;;14.97;89.18;97492.84;109552;1251;59686;-71
2022/06/02 04:23:46;;;;;;;8.40;6.30;;;;;;;15.12;88.57;97494.10;109551;1250;70822;-71
2022/06/02 04:26:49;;;;;;;9.40;7.60;;;;;;;15.27;88.49;97492.50;109817;1250;68727;-69
2022/06/02 04:29:58;;;;;;;8.30;7.40;;;;;;;15.45;87.87;97500.27;109732;1249;68502;-67
2022/06/02 04:33:11;;;;;;;10.50;7.40;;;;;;;15.56;87.36;97501.39;109675;1251;59726;-65
2022/06/02 04:36:13;;;;;;;12.20;8.50;;;;;;;15.66;87.16;97505.50;109748;1250;59684;-70
2022/06/02 04:39:01;;;;;;;8.50;6.40;;;;;;;15.82;85.90;97507.23;109738;1250;71353;-68
2022/06/02 04:41:38;;;;;;;8.60;7.10;;;;;;;15.99;85.13;97502.33;109743;1250;68647;-68
2022/06/02 04:44:13;;;;;;;8.80;6.50;;;;;;;16.10;84.56;97502.30;109546;1250;69466;-70
2022/06/02 04:46:59;;;;;;;9.30;7.80;;;;;;;16.22;83.93;97502.21;109649;1250;59702;-69
2022/06/02 04:49:50;;;;;;;9.40;7.30;;;;;;;16.34;82.69;97502.33;109717;1250;59760;-68
2022/06/02 04:52:54;;;;;;;9.20;8.10;;;;;;;16.49;82.63;97497.25;109664;1250;70824;-70
2022/06/02 04:55:33;;;;;;;10.50;8.10;;;;;;;16.66;82.37;97499.23;109924;1250;68851;-66
2022/06/02 04:58:24;;;;;;;10.50;8.90;;;;;;;16.73;81.99;97501.23;110109;1250;68474;-68
2022/06/02 05:01:24;;;;;;;12.50;10.60;;;;;;;16.81;81.64;97504.02;109616;1251;59691;-69
2022/06/02 05:03:55;;;;;;;9.00;7.80;;;;;;;17.02;80.75;97505.18;109599;1250;60067;-69
2022/06/02 05:06:31;;;;;;;;;;;;;;;17.35;81.83;97506.09;109779;1250;70773;-70
2022/06/02 05:09:36;;;;;;;11.00;8.10;;;;;;;17.80;82.70;97504.65;109710;1250;68573;-70
2022/06/02 05:12:23;;;;;;;;;;;;;;;18.48;80.24;97513.98;109693;1250;69462;-70
2022/06/02 05:15:34;;;;;;;10.70;7.00;;;;;;;19.12;79.49;97512.14;109798;1250;59706;-64
2022/06/02 05:18:35;;;;;;;10.30;7.00;;;;;;;19.84;77.07;97511.05;109634;1251;59769;-64
2022/06/02 05:21:35;;;;;;;10.90;6.90;;;;;;;20.29;70.64;97506.94;109809;1250;71556;-64
2022/06/02 05:24:39;;;;;;;7.30;4.90;;;;;;;20.71;69.55;97509.81;109817;1250;68550;-69
2022/06/02 05:27:44;;;;;;;7.50;5.70;;;;;;;20.95;66.69;97511.89;109815;1250;68564;-69
2022/06/02 05:30:37;;;;;;;6.90;5.40;;;;;;;21.15;67.14;97515.52;109782;1250;59714;-67
2022/06/02 05:33:25;;;;;;;6.20;5.20;;;;;;;21.25;65.96;97512.97;109620;1251;59714;-68
2022/06/02 05:36:14;;;;;;;7.80;5.40;;;;;;;21.19;65.62;97509.42;109834;1249;70747;-69
2022/06/02 05:38:46;;;;;;;7.20;6.00;;;;;;;21.07;65.86;97508.39;109585;1253;68656;-70
2022/06/02 05:41:39;;;;;;;8.70;5.60;;;;;;;21.03;65.64;97508.56;109581;1251;69210;-68
2022/06/02 05:44:19;;;;;;;7.70;5.20;;;;;;;21.02;65.12;97508.66;110058;1251;59692;-69
2022/06/02 05:47:27;;;;;;;6.40;5.30;;;;;;;20.97;65.39;97504.27;109630;1251;59656;-69
2022/06/02 05:50:24;;;;;;;8.60;5.80;;;;;;;20.99;65.46;97504.76;109609;1251;71593;-68
2022/06/02 05:53:12;;;;;;;6.90;5.60;;;;;;;20.98;65.65;97506.48;109700;1250;67931;-71
2022/06/02 05:56:20;;;;;;;7.90;5.50;;;;;;;20.94;66.05;97505.38;109706;1250;69467;-66
2022/06/02 05:58:58;;;;;;;8.60;5.50;;;;;;;20.98;66.14;97502.20;109731;1251;59631;-70
2022/06/02 06:01:48;;;;;;;9.50;6.50;;;;;;;20.88;65.74;97502.48;109541;1250;59742;-71
2022/06/02 06:04:39;;;;;;;8.30;6.40;;;;;;;20.74;65.54;97501.86;109658;1251;71456;-68
2022/06/02 06:07:31;;;;;;;8.50;5.80;;;;;;;20.85;66.29;97501.73;109627;1251;68635;-70
2022/06/02 06:10:17;;;;;;;7.40;5.70;;;;;;;21.12;66.22;97503.81;109632;1251;69468;-71
2022/06/02 06:13:24;;;;;;;6.80;5.50;;;;;;;21.38;64.62;97501.18;109729;1250;59738;-69
2022/06/02 06:15:53;;;;;;;8.20;5.30;;;;;;;21.67;63.09;97498.83;109639;1251;59700;-71
2022/06/02 06:18:43;;;;;;;8.00;4.90;;;;;;;22.05;63.18;97500.27;109716;1251;71520;-69
2022/06/02 06:21:18;;;;;;;7.00;5.70;;;;;;;22.63;63.88;97501.64;109616;1253;67856;-70
2022/06/02 06:24:08;;;;;;;5.70;4.50;;;;;;;23.10;60.80;97502.28;109596;1251;68701;-70
2022/06/02 06:26:57;;;;;;;9.50;6.80;;;;;;;23.60;58.05;97501.81;108991;1251;766016;-67
2022/06/02 06:29:45;;;;;;;6.90;5.40;;;;;;;23.74;56.68;97504.12;109652;1252;59691;-73
2022/06/02 06:32:39;;;;;;;9.50;6.00;;;;;;;23.99;55.78;97498.57;110202;1251;70995;-66
2022/06/02 06:35:45;;;;;;;8.30;5.70;;;;;;;24.37;55.86;97502.25;109662;1251;68674;-71
2022/06/02 06:38:45;;;;;;;5.40;4.60;;;;;;;24.72;55.71;97500.22;109644;1250;68620;-69
2022/06/02 06:41:43;;;;;;;6.10;4.90;;;;;;;25.11;53.84;97505.49;109514;1252;59719;-69
2022/06/02 06:44:45;;;;;;;5.90;4.30;;;;;;;25.59;53.87;97502.10;109789;1250;59634;-67
2022/06/02 06:47:30;;;;;;;6.40;4.80;;;;;;;26.06;51.74;97497.39;109777;1250;70825;-68
2022/06/02 06:50:14;;;;;;;6.80;4.00;;;;;;;26.31;51.37;97500.20;109820;1250;67824;-67
2022/06/02 06:53:02;;;;;;;6.10;4.50;;;;;;;26.59;50.04;97505.22;109772;1250;69513;-69
2022/06/02 06:55:57;;;;;;;5.70;4.40;;;;;;;26.76;47.73;97503.85;109834;1250;59749;-70
2022/06/02 06:58:45;;;;;;;5.60;4.00;;;;;;;27.03;48.20;97501.55;109732;1250;59643;-70
2022/06/02 07:01:28;;;;;;;7.10;4.90;;;;;;;27.41;48.94;97503.73;109839;1250;70836;-68
2022/06/02 07:04:13;;;;;;;5.80;4.50;;;;;;;27.60;46.95;97497.80;109752;1250;68779;-70
2022/06/02 07:07:05;;;;;;;5.70;4.30;;;;;;;27.72;46.18;97498.05;109723;1250;69441;-70
2022/06/02 07:09:38;;;;;;;6.80;4.80;;;;;;;27.80;44.85;97496.93;109950;1250;59764;-68
2022/06/02 07:15:37;;;;;;;4.80;3.90;;;;;;;28.00;46.22;97493.50;109808;1250;71660;-68
2022/06/02 07:18:23;;;;;;;5.50;4.20;;;;;;;28.35;45.32;97491.91;109763;1251;68957;-68
2022/06/02 07:21:18;;;;;;;5.50;4.00;;;;;;;28.63;43.69;97496.99;109672;1250;68664;-67
2022/06/02 07:24:04;;;;;;;4.70;3.80;;;;;;;28.54;42.80;97496.40;109571;1252;59721;-68
2022/06/02 07:26:58;;;;;;;5.10;4.20;;;;;;;28.45;43.30;97496.68;109771;1250;59764;-69
2022/06/02 07:29:51;;;;;;;7.40;4.50;;;;;;;28.39;43.52;97499.19;109797;1250;71881;-68
2022/06/02 07:32:44;;;;;;;4.30;3.90;;;;;;;28.60;43.22;97498.73;109728;1250;67633;-68
2022/06/02 07:35:35;;;;;;;5.10;3.90;;;;;;;29.13;42.52;97502.65;109847;1250;69458;-71
2022/06/02 07:38:30;;;;;;;6.70;4.50;;;;;;;29.53;41.83;97502.09;109916;1250;59703;-68
2022/06/02 07:41:04;;;;;;;7.20;4.20;;;;;;;29.66;40.41;97499.42;109847;1250;59759;-70
2022/06/02 07:44:01;;;;;;;6.10;3.80;;;;;;;29.69;40.85;97493.46;109753;1250;72120;-70
2022/06/02 07:46:41;;;;;;;5.20;3.90;;;;;;;29.81;40.79;97493.55;109773;1250;67801;-69
2022/06/02 07:49:47;;;;;;;5.80;4.20;;;;;;;29.81;40.78;97493.05;109743;1250;68724;-69
2022/06/02 07:52:26;;;;;;;3.50;3.20;;;;;;;29.85;40.62;97493.65;109640;1250;59760;-70
2022/06/02 07:55:19;;;;;;;4.60;3.70;;;;;;;30.13;40.66;97495.55;109800;1250;59697;-69
2022/06/02 07:58:02;;;;;;;5.60;4.00;;;;;;;30.17;40.34;97495.92;109736;1250;70752;-69
2022/06/02 08:00:44;;;;;;;7.50;4.50;;;;;;;30.38;39.33;97494.73;109601;1250;67824;-69
2022/06/02 08:03:24;;;;;;;6.00;4.30;;;;;;;30.45;40.17;97492.73;109810;1250;68661;-69
2022/06/02 08:06:09;;;;;;;5.80;4.10;;;;;;;30.76;39.06;97493.66;110462;1250;59700;-70
2022/06/02 08:09:19;;;;;;;5.30;3.70;;;;;;;30.89;39.19;97491.45;109651;1251;59675;-69
2022/06/02 08:12:13;;;;;;;5.10;3.30;;;;;;;31.32;38.76;97495.23;109599;1250;70760;-71
2022/06/02 08:15:00;;;;;;;6.50;4.00;;;;;;;31.42;37.04;97501.34;109769;1250;67826;-71
2022/06/02 08:17:57;;;;;;;6.00;3.70;;;;;;;31.57;36.87;97493.92;109757;1250;68647;-72
2022/06/02 08:20:41;;;;;;;5.70;3.50;;;;;;;31.18;36.65;97489.91;109776;1250;59682;-71
2022/06/02 08:23:25;;;;;;;5.80;3.70;;;;;;;30.62;38.10;97489.69;109827;1250;60135;-70
2022/06/02 08:25:57;;;;;;;5.70;3.90;;;;;;;30.80;38.06;97489.02;109792;1250;71631;-72
2022/06/02 08:28:44;;;;;;;4.80;3.80;;;;;;;30.61;37.78;97491.55;109926;1250;68584;-68
2022/06/02 08:31:31;;;;;;;6.40;4.10;;;;;;;30.64;37.73;97495.55;109829;1250;68679;-70
2022/06/02 08:34:21;;;;;;;5.90;4.10;;;;;;;30.44;38.14;97492.55;109798;1250;59680;-70
2022/06/02 08:36:50;;;;;;;5.10;3.80;;;;;;;29.67;39.31;97497.67;109844;1250;59654;-67
2022/06/02 08:40:01;;;;;;;6.60;4.10;;;;;;;29.93;38.91;97504.16;109780;1250;70668;-70
2022/06/02 08:42:56;;;;;;;6.40;4.30;;;;;;;30.40;38.10;97505.58;109153;1259;68500;-66
2022/06/02 08:45:44;;;;;;;6.90;3.90;;;;;;;30.91;37.53;97511.16;109134;1258;69552;-66
2022/06/02 08:48:50;;;;;;;7.20;3.90;;;;;;;31.17;36.69;97511.29;109133;1258;59721;-69
2022/06/02 08:51:56;;;;;;;4.90;3.90;;;;;;;31.39;36.52;97508.46;109298;1258;59767;-66
2022/06/02 08:54:56;;;;;;;4.00;3.60;;;;;;;31.73;35.50;97506.17;109198;1259;72297;-67
2022/06/02 08:58:06;;;;;;;5.40;4.10;;;;;;;31.71;35.59;97499.91;109107;1258;67818;-69
2022/06/02 09:00:57;;;;;;;8.60;4.40;;;;;;;31.85;36.34;97497.23;109130;1259;69475;-66
2022/06/02 09:03:44;;;;;;;4.10;3.60;;;;;;;32.04;35.90;97493.77;109070;1258;59851;-69
2022/06/02 09:06:35;;;;;;;6.30;4.20;;;;;;;32.11;35.61;97492.90;109084;1260;59715;-70
2022/06/02 09:09:14;;;;;;;5.10;3.40;;;;;;;32.54;35.24;97490.13;109114;1259;71621;-70
2022/06/02 09:11:59;;;;;;;5.80;3.40;;;;;;;32.90;34.38;97491.67;109133;1259;67752;-67
2022/06/02 09:14:52;;;;;;;4.20;3.20;;;;;;;33.29;33.41;97490.34;109022;1259;69547;-70
2022/06/02 09:17:40;;;;;;;4.60;4.00;;;;;;;33.31;32.99;97491.89;109105;1258;59733;-68
2022/06/02 09:20:09;;;;;;;4.50;3.70;;;;;;;33.54;31.49;97489.02;109680;1251;59774;-66
2022/06/02 09:22:49;;;;;;;5.30;3.60;;;;;;;33.39;31.53;97488.29;109733;1250;72374;-71
2022/06/02 09:25:23;;;;;;;5.30;3.50;;;;;;;33.63;30.26;97486.90;109737;1250;67858;-69
2022/06/02 09:28:02;;;;;;;6.80;3.60;;;;;;;33.45;30.30;97488.63;109902;1250;69505;-69
2022/06/02 09:30:49;;;;;;;3.80;3.10;;;;;;;33.45;30.28;97488.30;109733;1250;59758;-69
2022/06/02 09:33:55;;;;;;;3.50;3.00;;;;;;;32.55;31.07;97486.51;109797;1250;59706;-69
2022/06/02 09:36:30;;;;;;;6.00;4.00;;;;;;;31.08;33.47;97487.99;109731;1250;70877;-69
2022/06/02 09:39:02;;;;;;;4.00;3.00;;;;;;;30.76;34.04;97487.25;110303;1250;67811;-70
2022/06/02 09:42:06;;;;;;;5.30;3.40;;;;;;;30.86;33.77;97493.11;109750;1250;69480;-71
2022/06/02 09:44:41;;;;;;;4.30;3.20;;;;;;;31.06;34.08;97489.75;109757;1250;59819;-69
2022/06/02 09:47:20;;;;;;;5.60;3.30;;;;;;;31.61;33.06;97492.56;109828;1250;59712;-69
2022/06/02 09:50:12;;;;;;;5.20;3.80;;;;;;;31.94;33.00;97491.77;109738;1250;71549;-68
2022/06/02 09:53:02;;;;;;;4.30;3.50;;;;;;;31.86;32.07;97491.15;109749;1250;67821;-68
2022/06/02 09:56:07;;;;;;;6.40;3.90;;;;;;;30.96;34.03;97495.70;109807;1250;69471;-68
2022/06/02 09:58:57;;;;;;;5.60;3.20;;;;;;;30.47;35.87;97492.48;109772;1250;59776;-71
2022/06/02 10:01:44;;;;;;;4.10;3.40;;;;;;;30.98;35.33;97496.02;109916;1250;59699;-70
2022/06/02 10:05:01;;;;;;;4.70;3.40;;;;;;;31.40;34.48;97492.27;109849;1250;71679;-69
2022/06/02 10:07:53;;;;;;;4.60;4.00;;;;;;;31.79;33.42;97490.81;109532;1253;68658;-69
2022/06/02 10:10:39;;;;;;;6.50;4.70;;;;;;;32.06;32.12;97488.46;109722;1250;69625;-68
2022/06/02 10:13:40;;;;;;;5.10;4.20;;;;;;;31.54;32.04;97488.42;109728;1250;59694;-70
2022/06/02 10:16:38;;;;;;;4.50;3.10;;;;;;;30.92;32.47;97489.98;109573;1250;59730;-69
2022/06/02 10:19:38;;;;;;;5.40;3.50;;;;;;;31.06;32.03;97490.67;109759;1251;70435;-69
2022/06/02 10:22:28;;;;;;;5.60;3.20;;;;;;;31.11;32.56;97491.36;109779;1250;67908;-69
2022/06/02 10:25:18;;;;;;;6.10;3.10;;;;;;;30.87;33.59;97486.83;109986;1250;67838;-68
2022/06/02 10:28:12;;;;;;;6.20;3.50;;;;;;;30.22;32.81;97480.67;109755;1250;59697;-72
2022/06/02 10:31:00;;;;;;;3.70;3.00;;;;;;;30.70;32.52;97481.03;109715;1250;59704;-70
2022/06/02 10:33:59;;;;;;;4.90;3.80;;;;;;;31.15;32.14;97474.65;109859;1250;71494;-70
2022/06/02 10:36:40;;;;;;;5.90;3.70;;;;;;;31.28;32.50;97471.27;109751;1250;67829;-69
2022/06/02 10:39:18;;;;;;;5.40;3.50;;;;;;;31.54;32.99;97472.13;109614;1250;69158;-69
2022/06/02 10:41:55;;;;;;;5.30;3.30;;;;;;;31.41;32.54;97465.52;109818;1250;59702;-68
2022/06/02 10:44:40;;;;;;;6.40;3.80;;;;;;;31.53;32.64;97460.65;109785;1250;59748;-69
2022/06/02 10:47:28;;;;;;;5.20;3.90;;;;;;;31.76;33.10;97454.94;109786;1250;70910;-68
2022/06/02 10:50:17;;;;;;;5.60;4.30;;;;;;;31.93;32.24;97452.73;109810;1250;68541;-68
2022/06/02 10:53:24;;;;;;;5.90;4.00;;;;;;;31.61;32.47;97452.47;109832;1250;68468;-69
2022/06/02 10:56:23;;;;;;;6.10;3.90;;;;;;;31.10;32.68;97455.33;109776;1250;59697;-66
2022/06/02 10:59:10;;;;;;;5.10;3.60;;;;;;;29.92;32.99;97448.55;109725;1252;60101;-70
2022/06/02 11:02:17;;;;;;;5.50;3.40;;;;;;;29.85;33.99;97448.48;109568;1252;70800;-70
2022/06/02 11:05:22;;;;;;;4.70;2.90;;;;;;;30.36;33.89;97449.98;109914;1250;68013;-69
2022/06/02 11:08:48;;;;;;;4.90;3.20;;;;;;;30.78;31.61;97439.16;109821;1250;69304;-68
2022/06/02 11:11:25;;;;;;;6.10;3.10;;;;;;;31.05;30.22;97431.75;110123;1250;59702;-70
2022/06/02 11:14:31;;;;;;;5.70;3.10;;;;;;;31.40;29.17;97431.37;109813;1250;59694;-70
2022/06/02 11:17:06;;;;;;;4.30;2.90;;;;;;;31.52;27.63;97429.41;109569;1250;71570;-70
2022/06/02 11:20:13;;;;;;;6.10;3.10;;;;;;;31.65;27.17;97429.67;109754;1250;66875;-69
2022/06/02 11:23:06;;;;;;;5.10;3.20;;;;;;;31.28;28.15;97433.13;109802;1250;68662;-68
2022/06/02 11:26:13;;;;;;;4.30;2.60;;;;;;;31.63;29.24;97423.70;109697;1250;59673;-68
2022/06/02 11:29:21;;;;;;;3.10;2.40;;;;;;;32.02;29.10;97417.73;109778;1250;59706;-67
2022/06/02 11:32:02;;;;;;;5.60;3.60;;;;;;;32.44;29.57;97418.75;109736;1250;70856;-68
2022/06/02 11:34:46;;;;;;;7.80;3.00;;;;;;;32.14;29.40;97412.87;109792;1250;68134;-67
2022/06/02 11:37:21;;;;;;;5.10;3.10;;;;;;;31.75;29.86;97419.23;109718;1250;70127;-68
2022/06/02 11:39:58;;;;;;;4.60;2.70;;;;;;;31.63;29.95;97417.42;109746;1250;59767;-67
2022/06/02 11:42:43;;;;;;;5.60;3.10;;;;;;;31.72;29.41;97412.88;109748;1250;59701;-71
2022/06/02 11:45:31;;;;;;;4.20;2.80;;;;;;;31.96;28.87;97412.56;109729;1250;71430;-69
2022/06/02 11:48:06;;;;;;;5.40;3.10;;;;;;;31.92;28.39;97412.94;109804;1250;68032;-69
2022/06/02 11:51:10;;;;;;;4.00;2.70;;;;;;;31.99;29.83;97412.98;109773;1250;69392;-66
2022/06/02 11:54:17;;;;;;;3.90;2.70;;;;;;;31.97;29.43;97412.90;109741;1250;59695;-70
2022/06/02 11:57:07;;;;;;;3.90;2.70;;;;;;;31.90;29.45;97408.23;109757;1250;59751;-72
2022/06/02 11:59:57;;;;;;;2.80;2.10;;;;;;;31.65;28.47;97413.52;110071;1253;70740;-68
2022/06/02 12:02:38;;;;;;;4.80;2.40;;;;;;;31.79;27.83;97412.62;109814;1250;66956;-67
2022/06/02 12:05:32;;;;;;;4.10;2.50;;;;;;;31.96;27.11;97408.23;109762;1250;69449;-68
2022/06/02 12:08:09;;;;;;;4.10;2.90;;;;;;;32.14;27.62;97408.33;109799;1250;59735;-68
2022/06/02 12:11:00;;;;;;;5.90;3.00;;;;;;;32.11;27.40;97405.40;109790;1250;59647;-70
2022/06/02 12:13:51;;;;;;;3.40;2.80;;;;;;;31.85;27.76;97407.45;109764;1250;71619;-68
2022/06/02 12:16:55;;;;;;;5.30;3.10;;;;;;;31.75;28.17;97403.84;109703;1250;68602;-68
2022/06/02 12:20:03;;;;;;;5.00;3.30;;;;;;;31.73;27.70;97401.38;109443;1250;67619;-70
2022/06/02 12:22:56;;;;;;;4.90;2.90;;;;;;;31.74;29.37;97401.06;109696;1250;59640;-68
2022/06/02 12:25:56;;;;;;;3.60;2.50;;;;;;;31.86;29.83;97401.33;109827;1250;59694;-69
2022/06/02 12:28:34;;;;;;;3.60;2.70;;;;;;;31.72;28.59;97392.17;109748;1250;71673;-69
2022/06/02 12:31:46;;;;;;;6.20;2.40;;;;;;;31.55;30.37;97393.42;109696;1252;68621;-71
2022/06/02 12:34:17;;;;;;;4.80;2.70;;;;;;;31.30;30.05;97392.04;109932;1250;69625;-71
2022/06/02 12:37:14;;;;;;;3.20;2.10;;;;;;;31.06;31.21;97399.04;109923;1250;59755;-71
2022/06/02 12:40:02;;;;;;;3.10;2.50;;;;;;;30.89;28.64;97396.75;109805;1250;59774;-69
2022/06/02 12:42:50;;;;;;;3.40;2.00;;;;;;;30.91;28.56;97398.04;109603;1250;70794;-69
2022/06/02 12:45:49;;;;;;;5.20;2.60;;;;;;;30.85;28.81;97399.48;109891;1250;68655;-69
2022/06/02 12:48:37;;;;;;;3.10;2.40;;;;;;;30.28;30.21;97400.67;110172;1250;68655;-69
2022/06/02 12:51:18;;;;;;;4.20;2.40;;;;;;;29.82;32.01;97396.80;109637;1252;59745;-69
2022/06/02 12:54:25;;;;;;;3.50;2.50;;;;;;;29.58;34.02;97399.23;109601;1253;59750;-68
2022/06/02 12:57:37;;;;;;;5.00;3.40;;;;;;;29.24;34.09;97399.31;109751;1250;71599;-68
2022/06/02 13:00:33;;;;;;;6.20;3.90;;;;;;;28.78;34.88;97398.73;109747;1250;68708;-71
2022/06/02 13:03:31;;;;;;;4.70;3.20;;;;;;;28.51;35.66;97396.08;109456;1250;69421;-67
2022/06/02 13:06:20;;;;;;;3.80;2.90;;;;;;;28.08;36.02;97397.02;109725;1250;59684;-68
2022/06/02 13:09:11;;;;;;;5.20;2.50;;;;;;;27.93;36.60;97399.59;109747;1250;59705;-69
2022/06/02 13:12:11;;;;;;;3.90;2.90;;;;;;;28.08;36.34;97401.88;109710;1250;71552;-67
2022/06/02 13:14:46;;;;;;;5.50;2.80;;;;;;;28.08;35.70;97408.86;109586;1252;68636;-67
2022/06/02 13:17:33;;;;;;;5.70;3.00;;;;;;;28.01;35.87;97406.38;109670;1250;69742;-68
2022/06/02 13:20:32;;;;;;;4.70;2.70;;;;;;;27.89;36.21;97406.61;109634;1253;59774;-67